sensor_id;sensor_type;location;lat;lon;timestamp;P1;durP1;ratioP1;P2;durP2;ratioP2
53421;SDS011;39319;52.944;5.928;2022-12-07T00:00:54;13.18;;;2.67;;
53421;SDS011;39319;52.944;5.928;2022-12-07T00:03:21;11.50;;;2.70;;
53421;SDS011;39319;52.944;5.928;2022-12-07T00:05:46;10.53;;;2.77;;
53421;SDS011;39319;52.944;5.928;2022-12-07T00:08:12;12.00;;;2.30;;
53421;SDS011;39319;52.944;5.928;2022-12-07T00:10:38;10.60;;;2.33;;
53421;SDS011;39319;52.944;5.928;2022-12-07T00:13:07;14.30;;;2.60;;
53421;SDS011;39319;52.944;5.928;2022-12-07T00:15:33;12.60;;;2.47;;
53421;SDS011;39319;52.944;5.928;2022-12-07T00:17:59;11.25;;;2.97;;
53421;SDS011;39319;52.944;5.928;2022-12-07T00:20:26;12.53;;;2.30;;
53421;SDS011;39319;52.944;5.928;2022-12-07T00:22:52;14.50;;;3.40;;
53421;SDS011;39319;52.944;5.928;2022-12-07T00:25:18;11.95;;;2.58;;
53421;SDS011;39319;52.944;5.928;2022-12-07T00:27:44;14.53;;;2.47;;
53421;SDS011;39319;52.944;5.928;2022-12-07T00:30:10;14.25;;;2.50;;
53421;SDS011;39319;52.944;5.928;2022-12-07T00:32:36;11.18;;;2.20;;
53421;SDS011;39319;52.944;5.928;2022-12-07T00:35:02;13.53;;;2.50;;
53421;SDS011;39319;52.944;5.928;2022-12-07T00:37:29;11.95;;;2.65;;
53421;SDS011;39319;52.944;5.928;2022-12-07T00:39:57;13.82;;;2.33;;
53421;SDS011;39319;52.944;5.928;2022-12-07T00:42:25;12.27;;;2.20;;
53421;SDS011;39319;52.944;5.928;2022-12-07T00:44:50;11.47;;;2.03;;
53421;SDS011;39319;52.944;5.928;2022-12-07T00:47:17;12.52;;;2.40;;
53421;SDS011;39319;52.944;5.928;2022-12-07T00:49:42;10.17;;;2.00;;
53421;SDS011;39319;52.944;5.928;2022-12-07T00:52:08;11.63;;;2.30;;
53421;SDS011;39319;52.944;5.928;2022-12-07T00:54:34;11.60;;;2.22;;
53421;SDS011;39319;52.944;5.928;2022-12-07T00:56:59;10.55;;;1.90;;
53421;SDS011;39319;52.944;5.928;2022-12-07T00:59:25;10.57;;;1.80;;
53421;SDS011;39319;52.944;5.928;2022-12-07T01:01:51;10.97;;;1.97;;
53421;SDS011;39319;52.944;5.928;2022-12-07T01:04:17;9.27;;;2.08;;
53421;SDS011;39319;52.944;5.928;2022-12-07T01:06:43;11.30;;;1.90;;
53421;SDS011;39319;52.944;5.928;2022-12-07T01:09:09;10.93;;;2.50;;
53421;SDS011;39319;52.944;5.928;2022-12-07T01:11:34;11.40;;;3.08;;
53421;SDS011;39319;52.944;5.928;2022-12-07T01:14:00;17.25;;;3.05;;
53421;SDS011;39319;52.944;5.928;2022-12-07T01:16:27;11.45;;;2.40;;
53421;SDS011;39319;52.944;5.928;2022-12-07T01:18:55;12.30;;;2.50;;
53421;SDS011;39319;52.944;5.928;2022-12-07T01:21:22;12.32;;;2.60;;
53421;SDS011;39319;52.944;5.928;2022-12-07T01:23:50;12.68;;;2.10;;
53421;SDS011;39319;52.944;5.928;2022-12-07T01:26:17;12.00;;;2.28;;
53421;SDS011;39319;52.944;5.928;2022-12-07T01:28:44;15.18;;;2.45;;
53421;SDS011;39319;52.944;5.928;2022-12-07T01:31:12;12.20;;;2.20;;
53421;SDS011;39319;52.944;5.928;2022-12-07T01:33:43;12.07;;;2.25;;
53421;SDS011;39319;52.944;5.928;2022-12-07T01:36:21;11.57;;;2.42;;
53421;SDS011;39319;52.944;5.928;2022-12-07T01:38:49;13.73;;;2.30;;
53421;SDS011;39319;52.944;5.928;2022-12-07T01:41:17;7.82;;;1.50;;
53421;SDS011;39319;52.944;5.928;2022-12-07T01:46:33;13.80;;;2.33;;
53421;SDS011;39319;52.944;5.928;2022-12-07T01:48:59;11.48;;;2.05;;
53421;SDS011;39319;52.944;5.928;2022-12-07T01:51:26;18.73;;;2.80;;
53421;SDS011;39319;52.944;5.928;2022-12-07T01:53:53;11.68;;;2.28;;
53421;SDS011;39319;52.944;5.928;2022-12-07T01:56:20;14.60;;;2.70;;
53421;SDS011;39319;52.944;5.928;2022-12-07T01:58:49;12.77;;;3.03;;
53421;SDS011;39319;52.944;5.928;2022-12-07T02:01:17;10.50;;;1.88;;
53421;SDS011;39319;52.944;5.928;2022-12-07T02:03:43;11.63;;;2.05;;
53421;SDS011;39319;52.944;5.928;2022-12-07T02:06:10;11.93;;;2.30;;
53421;SDS011;39319;52.944;5.928;2022-12-07T02:08:38;10.27;;;1.97;;
53421;SDS011;39319;52.944;5.928;2022-12-07T02:11:05;13.17;;;2.03;;
53421;SDS011;39319;52.944;5.928;2022-12-07T02:13:33;13.15;;;2.20;;
53421;SDS011;39319;52.944;5.928;2022-12-07T02:16:08;13.02;;;2.17;;
53421;SDS011;39319;52.944;5.928;2022-12-07T02:30:01;10.95;;;2.03;;
53421;SDS011;39319;52.944;5.928;2022-12-07T02:33:00;11.48;;;2.50;;
53421;SDS011;39319;52.944;5.928;2022-12-07T02:38:29;13.30;;;2.50;;
53421;SDS011;39319;52.944;5.928;2022-12-07T02:41:06;12.00;;;2.20;;
53421;SDS011;39319;52.944;5.928;2022-12-07T02:43:38;14.18;;;2.40;;
53421;SDS011;39319;52.944;5.928;2022-12-07T02:46:34;11.35;;;2.08;;
53421;SDS011;39319;52.944;5.928;2022-12-07T02:49:03;14.25;;;2.63;;
53421;SDS011;39319;52.944;5.928;2022-12-07T02:51:30;14.13;;;2.35;;
53421;SDS011;39319;52.944;5.928;2022-12-07T02:53:57;13.50;;;2.03;;
53421;SDS011;39319;52.944;5.928;2022-12-07T02:56:46;13.55;;;2.10;;
53421;SDS011;39319;52.944;5.928;2022-12-07T03:08:13;13.95;;;2.40;;
53421;SDS011;39319;52.944;5.928;2022-12-07T03:10:50;14.33;;;2.93;;
53421;SDS011;39319;52.944;5.928;2022-12-07T03:13:24;12.57;;;2.50;;
53421;SDS011;39319;52.944;5.928;2022-12-07T03:18:33;11.70;;;3.08;;
53421;SDS011;39319;52.944;5.928;2022-12-07T03:21:05;13.45;;;2.92;;
53421;SDS011;39319;52.944;5.928;2022-12-07T03:23:35;14.13;;;3.00;;
53421;SDS011;39319;52.944;5.928;2022-12-07T03:26:03;11.68;;;3.08;;
53421;SDS011;39319;52.944;5.928;2022-12-07T03:28:32;14.33;;;3.10;;
53421;SDS011;39319;52.944;5.928;2022-12-07T03:36:16;12.38;;;2.45;;
53421;SDS011;39319;52.944;5.928;2022-12-07T03:39:14;11.07;;;2.00;;
53421;SDS011;39319;52.944;5.928;2022-12-07T03:41:54;11.80;;;1.80;;
53421;SDS011;39319;52.944;5.928;2022-12-07T03:44:22;14.90;;;2.45;;
53421;SDS011;39319;52.944;5.928;2022-12-07T03:49:37;11.70;;;1.83;;
53421;SDS011;39319;52.944;5.928;2022-12-07T03:57:57;12.00;;;1.73;;
53421;SDS011;39319;52.944;5.928;2022-12-07T04:00:25;13.40;;;2.00;;
53421;SDS011;39319;52.944;5.928;2022-12-07T04:02:52;11.38;;;1.90;;
53421;SDS011;39319;52.944;5.928;2022-12-07T04:05:18;11.23;;;1.90;;
53421;SDS011;39319;52.944;5.928;2022-12-07T04:07:44;11.00;;;1.90;;
53421;SDS011;39319;52.944;5.928;2022-12-07T04:10:10;14.52;;;2.60;;
53421;SDS011;39319;52.944;5.928;2022-12-07T04:12:36;10.98;;;1.92;;
53421;SDS011;39319;52.944;5.928;2022-12-07T04:15:02;9.50;;;1.90;;
53421;SDS011;39319;52.944;5.928;2022-12-07T04:17:28;11.68;;;1.67;;
53421;SDS011;39319;52.944;5.928;2022-12-07T04:19:54;10.60;;;1.75;;
53421;SDS011;39319;52.944;5.928;2022-12-07T04:22:20;12.27;;;2.13;;
53421;SDS011;39319;52.944;5.928;2022-12-07T04:24:46;10.80;;;1.73;;
53421;SDS011;39319;52.944;5.928;2022-12-07T04:27:12;10.98;;;1.92;;
53421;SDS011;39319;52.944;5.928;2022-12-07T04:29:37;13.52;;;2.28;;
53421;SDS011;39319;52.944;5.928;2022-12-07T04:32:03;12.43;;;1.95;;
53421;SDS011;39319;52.944;5.928;2022-12-07T04:34:29;11.90;;;1.60;;
53421;SDS011;39319;52.944;5.928;2022-12-07T04:36:55;12.63;;;1.85;;
53421;SDS011;39319;52.944;5.928;2022-12-07T04:39:25;9.00;;;1.70;;
53421;SDS011;39319;52.944;5.928;2022-12-07T04:41:55;11.23;;;1.90;;
53421;SDS011;39319;52.944;5.928;2022-12-07T04:44:22;12.80;;;1.88;;
53421;SDS011;39319;52.944;5.928;2022-12-07T04:46:48;9.48;;;1.65;;
53421;SDS011;39319;52.944;5.928;2022-12-07T04:49:15;7.55;;;1.60;;
53421;SDS011;39319;52.944;5.928;2022-12-07T04:51:41;9.85;;;1.70;;
53421;SDS011;39319;52.944;5.928;2022-12-07T04:54:07;11.15;;;1.67;;
53421;SDS011;39319;52.944;5.928;2022-12-07T04:56:33;11.32;;;2.17;;
53421;SDS011;39319;52.944;5.928;2022-12-07T04:59:00;8.32;;;1.52;;
53421;SDS011;39319;52.944;5.928;2022-12-07T05:01:26;10.93;;;1.70;;
53421;SDS011;39319;52.944;5.928;2022-12-07T05:03:52;9.93;;;1.70;;
53421;SDS011;39319;52.944;5.928;2022-12-07T05:06:18;9.87;;;1.93;;
53421;SDS011;39319;52.944;5.928;2022-12-07T05:08:47;8.77;;;1.30;;
53421;SDS011;39319;52.944;5.928;2022-12-07T05:11:13;10.40;;;1.63;;
53421;SDS011;39319;52.944;5.928;2022-12-07T05:13:59;8.80;;;1.65;;
53421;SDS011;39319;52.944;5.928;2022-12-07T05:16:25;9.93;;;1.60;;
53421;SDS011;39319;52.944;5.928;2022-12-07T05:18:51;10.63;;;1.90;;
53421;SDS011;39319;52.944;5.928;2022-12-07T05:21:17;9.10;;;1.77;;
53421;SDS011;39319;52.944;5.928;2022-12-07T05:23:43;14.27;;;2.15;;
53421;SDS011;39319;52.944;5.928;2022-12-07T05:26:08;14.03;;;2.13;;
53421;SDS011;39319;52.944;5.928;2022-12-07T05:28:35;13.03;;;2.17;;
53421;SDS011;39319;52.944;5.928;2022-12-07T05:31:01;14.05;;;2.40;;
53421;SDS011;39319;52.944;5.928;2022-12-07T05:33:26;12.98;;;2.10;;
53421;SDS011;39319;52.944;5.928;2022-12-07T05:35:53;14.63;;;2.25;;
53421;SDS011;39319;52.944;5.928;2022-12-07T05:38:18;11.47;;;2.10;;
53421;SDS011;39319;52.944;5.928;2022-12-07T05:40:44;13.55;;;2.22;;
53421;SDS011;39319;52.944;5.928;2022-12-07T05:43:10;10.00;;;1.57;;
53421;SDS011;39319;52.944;5.928;2022-12-07T05:45:36;13.15;;;2.05;;
53421;SDS011;39319;52.944;5.928;2022-12-07T05:48:01;7.63;;;1.58;;
53421;SDS011;39319;52.944;5.928;2022-12-07T05:50:27;8.73;;;1.97;;
53421;SDS011;39319;52.944;5.928;2022-12-07T05:52:53;9.23;;;1.73;;
53421;SDS011;39319;52.944;5.928;2022-12-07T05:55:20;10.27;;;1.90;;
53421;SDS011;39319;52.944;5.928;2022-12-07T05:57:46;11.80;;;2.45;;
53421;SDS011;39319;52.944;5.928;2022-12-07T06:00:30;9.68;;;2.78;;
53421;SDS011;39319;52.944;5.928;2022-12-07T06:02:56;10.63;;;2.97;;
53421;SDS011;39319;52.944;5.928;2022-12-07T06:05:22;10.02;;;2.38;;
53421;SDS011;39319;52.944;5.928;2022-12-07T06:07:48;12.00;;;2.20;;
53421;SDS011;39319;52.944;5.928;2022-12-07T06:10:14;7.75;;;1.52;;
53421;SDS011;39319;52.944;5.928;2022-12-07T06:12:40;12.07;;;1.80;;
53421;SDS011;39319;52.944;5.928;2022-12-07T06:15:08;9.05;;;1.55;;
53421;SDS011;39319;52.944;5.928;2022-12-07T06:17:35;7.50;;;1.30;;
53421;SDS011;39319;52.944;5.928;2022-12-07T06:20:02;9.68;;;1.67;;
53421;SDS011;39319;52.944;5.928;2022-12-07T06:22:28;8.23;;;1.58;;
53421;SDS011;39319;52.944;5.928;2022-12-07T06:24:54;7.28;;;1.38;;
53421;SDS011;39319;52.944;5.928;2022-12-07T06:27:20;9.23;;;1.48;;
53421;SDS011;39319;52.944;5.928;2022-12-07T06:29:46;8.20;;;1.67;;
53421;SDS011;39319;52.944;5.928;2022-12-07T06:32:12;7.90;;;1.55;;
53421;SDS011;39319;52.944;5.928;2022-12-07T06:34:37;9.77;;;1.60;;
53421;SDS011;39319;52.944;5.928;2022-12-07T06:37:04;8.23;;;1.40;;
53421;SDS011;39319;52.944;5.928;2022-12-07T06:39:29;8.20;;;1.40;;
53421;SDS011;39319;52.944;5.928;2022-12-07T06:41:56;7.75;;;1.60;;
53421;SDS011;39319;52.944;5.928;2022-12-07T06:44:22;9.10;;;1.42;;
53421;SDS011;39319;52.944;5.928;2022-12-07T06:46:48;10.13;;;1.70;;
53421;SDS011;39319;52.944;5.928;2022-12-07T06:49:15;10.23;;;2.25;;
53421;SDS011;39319;52.944;5.928;2022-12-07T06:51:41;12.70;;;2.08;;
53421;SDS011;39319;52.944;5.928;2022-12-07T06:54:10;10.40;;;1.90;;
53421;SDS011;39319;52.944;5.928;2022-12-07T06:56:37;8.20;;;1.70;;
53421;SDS011;39319;52.944;5.928;2022-12-07T06:59:03;11.73;;;2.20;;
53421;SDS011;39319;52.944;5.928;2022-12-07T07:01:31;9.13;;;1.50;;
53421;SDS011;39319;52.944;5.928;2022-12-07T07:03:58;11.38;;;2.40;;
53421;SDS011;39319;52.944;5.928;2022-12-07T07:06:24;11.45;;;1.98;;
53421;SDS011;39319;52.944;5.928;2022-12-07T07:08:50;12.02;;;2.50;;
53421;SDS011;39319;52.944;5.928;2022-12-07T07:11:16;13.27;;;2.50;;
53421;SDS011;39319;52.944;5.928;2022-12-07T07:13:42;9.97;;;2.23;;
53421;SDS011;39319;52.944;5.928;2022-12-07T07:16:08;9.90;;;1.98;;
53421;SDS011;39319;52.944;5.928;2022-12-07T07:18:33;11.90;;;2.23;;
53421;SDS011;39319;52.944;5.928;2022-12-07T07:21:00;11.32;;;2.08;;
53421;SDS011;39319;52.944;5.928;2022-12-07T07:23:26;9.55;;;2.03;;
53421;SDS011;39319;52.944;5.928;2022-12-07T07:25:52;9.57;;;1.90;;
53421;SDS011;39319;52.944;5.928;2022-12-07T07:28:18;9.87;;;1.80;;
53421;SDS011;39319;52.944;5.928;2022-12-07T07:30:44;10.05;;;1.90;;
53421;SDS011;39319;52.944;5.928;2022-12-07T07:33:10;8.93;;;1.73;;
53421;SDS011;39319;52.944;5.928;2022-12-07T07:35:36;10.43;;;2.00;;
53421;SDS011;39319;52.944;5.928;2022-12-07T07:38:02;10.40;;;2.00;;
53421;SDS011;39319;52.944;5.928;2022-12-07T07:40:28;10.37;;;2.07;;
53421;SDS011;39319;52.944;5.928;2022-12-07T07:42:54;9.82;;;2.17;;
53421;SDS011;39319;52.944;5.928;2022-12-07T07:45:21;9.75;;;2.05;;
53421;SDS011;39319;52.944;5.928;2022-12-07T07:47:48;10.50;;;1.95;;
53421;SDS011;39319;52.944;5.928;2022-12-07T07:50:14;10.95;;;2.70;;
53421;SDS011;39319;52.944;5.928;2022-12-07T07:52:41;7.60;;;2.53;;
53421;SDS011;39319;52.944;5.928;2022-12-07T07:55:07;11.23;;;2.47;;
53421;SDS011;39319;52.944;5.928;2022-12-07T07:57:34;9.50;;;3.03;;
53421;SDS011;39319;52.944;5.928;2022-12-07T08:00:03;9.73;;;3.60;;
53421;SDS011;39319;52.944;5.928;2022-12-07T08:02:29;11.43;;;4.07;;
53421;SDS011;39319;52.944;5.928;2022-12-07T08:04:55;13.43;;;3.60;;
53421;SDS011;39319;52.944;5.928;2022-12-07T08:07:21;12.03;;;2.90;;
53421;SDS011;39319;52.944;5.928;2022-12-07T08:09:46;12.57;;;3.00;;
53421;SDS011;39319;52.944;5.928;2022-12-07T08:12:15;10.93;;;2.50;;
53421;SDS011;39319;52.944;5.928;2022-12-07T08:14:40;9.95;;;2.20;;
53421;SDS011;39319;52.944;5.928;2022-12-07T08:17:06;10.55;;;2.20;;
53421;SDS011;39319;52.944;5.928;2022-12-07T08:19:32;9.15;;;2.28;;
53421;SDS011;39319;52.944;5.928;2022-12-07T08:21:59;8.50;;;2.10;;
53421;SDS011;39319;52.944;5.928;2022-12-07T08:24:25;13.77;;;2.58;;
53421;SDS011;39319;52.944;5.928;2022-12-07T08:26:51;10.00;;;2.38;;
53421;SDS011;39319;52.944;5.928;2022-12-07T08:29:17;11.70;;;2.13;;
53421;SDS011;39319;52.944;5.928;2022-12-07T08:31:43;9.63;;;2.22;;
53421;SDS011;39319;52.944;5.928;2022-12-07T08:34:09;8.30;;;2.10;;
53421;SDS011;39319;52.944;5.928;2022-12-07T08:36:36;9.93;;;1.97;;
53421;SDS011;39319;52.944;5.928;2022-12-07T08:39:02;10.20;;;2.13;;
53421;SDS011;39319;52.944;5.928;2022-12-07T08:41:28;10.10;;;2.10;;
53421;SDS011;39319;52.944;5.928;2022-12-07T08:43:55;11.55;;;2.17;;
53421;SDS011;39319;52.944;5.928;2022-12-07T08:46:31;12.18;;;2.65;;
53421;SDS011;39319;52.944;5.928;2022-12-07T08:49:12;11.30;;;2.55;;
53421;SDS011;39319;52.944;5.928;2022-12-07T08:51:41;14.30;;;2.47;;
53421;SDS011;39319;52.944;5.928;2022-12-07T08:54:09;15.90;;;2.38;;
53421;SDS011;39319;52.944;5.928;2022-12-07T08:56:37;13.07;;;2.50;;
53421;SDS011;39319;52.944;5.928;2022-12-07T08:59:04;14.43;;;2.65;;
53421;SDS011;39319;52.944;5.928;2022-12-07T09:01:31;11.65;;;2.47;;
53421;SDS011;39319;52.944;5.928;2022-12-07T09:03:57;11.55;;;2.45;;
53421;SDS011;39319;52.944;5.928;2022-12-07T09:06:23;14.68;;;2.65;;
53421;SDS011;39319;52.944;5.928;2022-12-07T09:08:50;10.05;;;2.45;;
53421;SDS011;39319;52.944;5.928;2022-12-07T09:11:19;12.98;;;2.70;;
53421;SDS011;39319;52.944;5.928;2022-12-07T09:13:45;11.52;;;2.60;;
53421;SDS011;39319;52.944;5.928;2022-12-07T09:16:10;12.43;;;2.87;;
53421;SDS011;39319;52.944;5.928;2022-12-07T09:18:36;12.45;;;3.30;;
53421;SDS011;39319;52.944;5.928;2022-12-07T09:21:03;11.38;;;3.15;;
53421;SDS011;39319;52.944;5.928;2022-12-07T09:23:29;10.55;;;2.95;;
53421;SDS011;39319;52.944;5.928;2022-12-07T09:26:00;13.48;;;2.63;;
53421;SDS011;39319;52.944;5.928;2022-12-07T09:28:26;11.57;;;2.65;;
53421;SDS011;39319;52.944;5.928;2022-12-07T09:30:52;9.32;;;2.38;;
53421;SDS011;39319;52.944;5.928;2022-12-07T09:33:18;14.00;;;2.40;;
53421;SDS011;39319;52.944;5.928;2022-12-07T09:35:47;10.68;;;2.78;;
53421;SDS011;39319;52.944;5.928;2022-12-07T09:38:14;13.20;;;3.40;;
53421;SDS011;39319;52.944;5.928;2022-12-07T09:40:41;12.05;;;3.00;;
53421;SDS011;39319;52.944;5.928;2022-12-07T09:43:18;13.68;;;3.10;;
53421;SDS011;39319;52.944;5.928;2022-12-07T09:45:46;9.27;;;2.35;;
53421;SDS011;39319;52.944;5.928;2022-12-07T09:48:16;9.23;;;1.80;;
53421;SDS011;39319;52.944;5.928;2022-12-07T09:50:45;10.90;;;2.38;;
53421;SDS011;39319;52.944;5.928;2022-12-07T09:53:14;9.65;;;1.70;;
53421;SDS011;39319;52.944;5.928;2022-12-07T09:56:01;9.07;;;2.00;;
53421;SDS011;39319;52.944;5.928;2022-12-07T09:58:28;11.55;;;2.30;;
53421;SDS011;39319;52.944;5.928;2022-12-07T10:03:32;12.48;;;2.22;;
53421;SDS011;39319;52.944;5.928;2022-12-07T10:06:00;10.80;;;2.13;;
53421;SDS011;39319;52.944;5.928;2022-12-07T10:08:26;10.37;;;2.00;;
53421;SDS011;39319;52.944;5.928;2022-12-07T10:10:52;12.75;;;2.42;;
53421;SDS011;39319;52.944;5.928;2022-12-07T10:18:49;12.15;;;2.40;;
53421;SDS011;39319;52.944;5.928;2022-12-07T10:21:15;10.07;;;2.03;;
53421;SDS011;39319;52.944;5.928;2022-12-07T10:23:42;11.30;;;3.05;;
53421;SDS011;39319;52.944;5.928;2022-12-07T10:26:35;13.27;;;2.67;;
53421;SDS011;39319;52.944;5.928;2022-12-07T10:31:40;12.20;;;1.92;;
53421;SDS011;39319;52.944;5.928;2022-12-07T10:34:14;12.43;;;2.78;;
53421;SDS011;39319;52.944;5.928;2022-12-07T10:36:49;10.50;;;2.20;;
53421;SDS011;39319;52.944;5.928;2022-12-07T10:39:16;11.07;;;2.38;;
53421;SDS011;39319;52.944;5.928;2022-12-07T10:41:54;11.10;;;2.28;;
53421;SDS011;39319;52.944;5.928;2022-12-07T10:44:23;12.48;;;2.28;;
53421;SDS011;39319;52.944;5.928;2022-12-07T10:57:55;16.25;;;4.38;;
53421;SDS011;39319;52.944;5.928;2022-12-07T11:00:28;10.70;;;2.72;;
53421;SDS011;39319;52.944;5.928;2022-12-07T11:11:33;10.93;;;2.22;;
53421;SDS011;39319;52.944;5.928;2022-12-07T11:14:11;12.75;;;2.00;;
53421;SDS011;39319;52.944;5.928;2022-12-07T11:19:59;12.77;;;2.42;;
53421;SDS011;39319;52.944;5.928;2022-12-07T11:25:39;12.95;;;2.50;;
53421;SDS011;39319;52.944;5.928;2022-12-07T11:31:29;13.70;;;2.53;;
53421;SDS011;39319;52.944;5.928;2022-12-07T11:41:44;13.75;;;2.35;;
53421;SDS011;39319;52.944;5.928;2022-12-07T11:47:09;15.07;;;2.75;;
53421;SDS011;39319;52.944;5.928;2022-12-07T11:54:54;14.65;;;2.90;;
53421;SDS011;39319;52.944;5.928;2022-12-07T11:57:44;13.15;;;2.58;;
53421;SDS011;39319;52.944;5.928;2022-12-07T12:00:15;13.50;;;2.55;;
53421;SDS011;39319;52.944;5.928;2022-12-07T12:05:34;10.45;;;2.60;;
53421;SDS011;39319;52.944;5.928;2022-12-07T12:08:09;12.63;;;2.15;;
53421;SDS011;39319;52.944;5.928;2022-12-07T12:16:39;10.98;;;2.00;;
53421;SDS011;39319;52.944;5.928;2022-12-07T12:19:36;11.63;;;1.80;;
53421;SDS011;39319;52.944;5.928;2022-12-07T12:22:37;9.35;;;1.88;;
53421;SDS011;39319;52.944;5.928;2022-12-07T12:25:07;12.95;;;2.10;;
53421;SDS011;39319;52.944;5.928;2022-12-07T12:27:46;12.60;;;1.92;;
53421;SDS011;39319;52.944;5.928;2022-12-07T12:50:22;10.63;;;2.00;;
53421;SDS011;39319;52.944;5.928;2022-12-07T12:52:51;9.63;;;1.40;;
53421;SDS011;39319;52.944;5.928;2022-12-07T12:55:22;8.80;;;1.63;;
53421;SDS011;39319;52.944;5.928;2022-12-07T13:00:49;10.40;;;2.10;;
53421;SDS011;39319;52.944;5.928;2022-12-07T13:03:55;12.10;;;1.98;;
53421;SDS011;39319;52.944;5.928;2022-12-07T13:08:52;8.45;;;1.92;;
53421;SDS011;39319;52.944;5.928;2022-12-07T13:11:33;11.23;;;1.70;;
53421;SDS011;39319;52.944;5.928;2022-12-07T13:17:04;12.93;;;1.88;;
53421;SDS011;39319;52.944;5.928;2022-12-07T13:19:54;8.73;;;1.77;;
53421;SDS011;39319;52.944;5.928;2022-12-07T13:25:05;10.77;;;2.10;;
53421;SDS011;39319;52.944;5.928;2022-12-07T13:27:33;11.20;;;1.75;;
53421;SDS011;39319;52.944;5.928;2022-12-07T13:30:02;11.88;;;2.00;;
53421;SDS011;39319;52.944;5.928;2022-12-07T13:32:41;10.73;;;1.55;;
53421;SDS011;39319;52.944;5.928;2022-12-07T13:35:30;10.48;;;1.67;;
53421;SDS011;39319;52.944;5.928;2022-12-07T13:37:58;9.23;;;1.70;;
53421;SDS011;39319;52.944;5.928;2022-12-07T13:40:27;8.75;;;1.90;;
53421;SDS011;39319;52.944;5.928;2022-12-07T13:42:59;10.63;;;1.77;;
53421;SDS011;39319;52.944;5.928;2022-12-07T13:45:28;10.60;;;2.40;;
53421;SDS011;39319;52.944;5.928;2022-12-07T13:51:16;18.83;;;2.47;;
53421;SDS011;39319;52.944;5.928;2022-12-07T13:53:53;12.77;;;2.20;;
53421;SDS011;39319;52.944;5.928;2022-12-07T13:56:21;20.13;;;2.58;;
53421;SDS011;39319;52.944;5.928;2022-12-07T13:58:51;17.52;;;2.70;;
53421;SDS011;39319;52.944;5.928;2022-12-07T14:01:17;11.52;;;2.35;;
53421;SDS011;39319;52.944;5.928;2022-12-07T14:03:43;21.38;;;2.47;;
53421;SDS011;39319;52.944;5.928;2022-12-07T14:06:16;8.93;;;1.50;;
53421;SDS011;39319;52.944;5.928;2022-12-07T14:08:42;8.55;;;1.63;;
53421;SDS011;39319;52.944;5.928;2022-12-07T14:11:14;8.50;;;1.40;;
53421;SDS011;39319;52.944;5.928;2022-12-07T14:13:44;13.90;;;1.80;;
53421;SDS011;39319;52.944;5.928;2022-12-07T14:16:24;18.05;;;2.70;;
53421;SDS011;39319;52.944;5.928;2022-12-07T14:22:07;16.33;;;2.38;;
53421;SDS011;39319;52.944;5.928;2022-12-07T14:24:43;17.35;;;2.78;;
53421;SDS011;39319;52.944;5.928;2022-12-07T14:27:16;15.65;;;2.30;;
53421;SDS011;39319;52.944;5.928;2022-12-07T14:29:44;37.35;;;4.70;;
53421;SDS011;39319;52.944;5.928;2022-12-07T14:32:22;19.43;;;3.03;;
53421;SDS011;39319;52.944;5.928;2022-12-07T14:35:30;8.23;;;1.50;;
53421;SDS011;39319;52.944;5.928;2022-12-07T14:37:48;16.27;;;2.15;;
53421;SDS011;39319;52.944;5.928;2022-12-07T14:40:15;9.48;;;1.40;;
53421;SDS011;39319;52.944;5.928;2022-12-07T14:42:57;5.20;;;1.08;;
53421;SDS011;39319;52.944;5.928;2022-12-07T14:45:24;6.82;;;1.13;;
53421;SDS011;39319;52.944;5.928;2022-12-07T14:47:49;5.78;;;1.00;;
53421;SDS011;39319;52.944;5.928;2022-12-07T14:50:17;5.50;;;1.10;;
53421;SDS011;39319;52.944;5.928;2022-12-07T14:52:46;6.40;;;1.15;;
53421;SDS011;39319;52.944;5.928;2022-12-07T14:55:26;5.73;;;1.60;;
53421;SDS011;39319;52.944;5.928;2022-12-07T14:57:54;8.88;;;2.40;;
53421;SDS011;39319;52.944;5.928;2022-12-07T15:00:21;5.95;;;1.88;;
53421;SDS011;39319;52.944;5.928;2022-12-07T15:02:48;7.20;;;1.80;;
53421;SDS011;39319;52.944;5.928;2022-12-07T15:05:15;5.50;;;1.15;;
53421;SDS011;39319;52.944;5.928;2022-12-07T15:07:45;4.57;;;0.77;;
53421;SDS011;39319;52.944;5.928;2022-12-07T15:10:19;4.57;;;0.93;;
53421;SDS011;39319;52.944;5.928;2022-12-07T15:12:49;6.18;;;1.00;;
53421;SDS011;39319;52.944;5.928;2022-12-07T15:15:15;5.15;;;0.93;;
53421;SDS011;39319;52.944;5.928;2022-12-07T15:17:42;6.35;;;1.30;;
53421;SDS011;39319;52.944;5.928;2022-12-07T15:20:14;5.32;;;1.30;;
53421;SDS011;39319;52.944;5.928;2022-12-07T15:22:41;6.45;;;1.50;;
53421;SDS011;39319;52.944;5.928;2022-12-07T15:25:08;6.93;;;1.40;;
53421;SDS011;39319;52.944;5.928;2022-12-07T15:27:37;6.78;;;1.85;;
53421;SDS011;39319;52.944;5.928;2022-12-07T15:30:03;7.20;;;3.70;;
53421;SDS011;39319;52.944;5.928;2022-12-07T15:32:29;8.82;;;6.32;;
53421;SDS011;39319;52.944;5.928;2022-12-07T15:34:55;10.27;;;6.75;;
53421;SDS011;39319;52.944;5.928;2022-12-07T15:37:21;9.13;;;7.97;;
53421;SDS011;39319;52.944;5.928;2022-12-07T15:39:47;10.38;;;4.47;;
53421;SDS011;39319;52.944;5.928;2022-12-07T15:42:13;6.70;;;3.60;;
53421;SDS011;39319;52.944;5.928;2022-12-07T15:44:39;7.50;;;3.70;;
53421;SDS011;39319;52.944;5.928;2022-12-07T15:47:23;11.88;;;3.60;;
53421;SDS011;39319;52.944;5.928;2022-12-07T15:49:49;7.53;;;1.58;;
53421;SDS011;39319;52.944;5.928;2022-12-07T15:52:14;9.13;;;2.23;;
53421;SDS011;39319;52.944;5.928;2022-12-07T15:54:41;10.60;;;2.63;;
53421;SDS011;39319;52.944;5.928;2022-12-07T15:57:07;8.87;;;3.13;;
53421;SDS011;39319;52.944;5.928;2022-12-07T15:59:34;12.52;;;3.38;;
53421;SDS011;39319;52.944;5.928;2022-12-07T16:01:59;8.40;;;2.80;;
53421;SDS011;39319;52.944;5.928;2022-12-07T16:04:26;9.90;;;2.50;;
53421;SDS011;39319;52.944;5.928;2022-12-07T16:06:56;8.57;;;2.55;;
53421;SDS011;39319;52.944;5.928;2022-12-07T16:09:22;8.98;;;2.63;;
53421;SDS011;39319;52.944;5.928;2022-12-07T16:11:48;14.97;;;3.50;;
53421;SDS011;39319;52.944;5.928;2022-12-07T16:14:15;7.78;;;2.20;;
53421;SDS011;39319;52.944;5.928;2022-12-07T16:16:41;7.80;;;2.40;;
53421;SDS011;39319;52.944;5.928;2022-12-07T16:19:07;8.88;;;2.70;;
53421;SDS011;39319;52.944;5.928;2022-12-07T16:21:33;8.35;;;2.80;;
53421;SDS011;39319;52.944;5.928;2022-12-07T16:24:00;7.63;;;2.50;;
53421;SDS011;39319;52.944;5.928;2022-12-07T16:26:26;9.67;;;2.60;;
53421;SDS011;39319;52.944;5.928;2022-12-07T16:28:53;9.52;;;3.38;;
53421;SDS011;39319;52.944;5.928;2022-12-07T16:31:20;7.03;;;2.30;;
53421;SDS011;39319;52.944;5.928;2022-12-07T16:33:48;10.82;;;5.07;;
53421;SDS011;39319;52.944;5.928;2022-12-07T16:36:15;14.40;;;7.70;;
53421;SDS011;39319;52.944;5.928;2022-12-07T16:38:42;20.58;;;12.95;;
53421;SDS011;39319;52.944;5.928;2022-12-07T16:41:08;13.65;;;3.92;;
53421;SDS011;39319;52.944;5.928;2022-12-07T16:43:35;14.67;;;8.63;;
53421;SDS011;39319;52.944;5.928;2022-12-07T16:46:01;9.50;;;3.83;;
53421;SDS011;39319;52.944;5.928;2022-12-07T16:48:27;10.38;;;3.70;;
53421;SDS011;39319;52.944;5.928;2022-12-07T16:50:53;10.35;;;3.45;;
53421;SDS011;39319;52.944;5.928;2022-12-07T16:53:20;8.98;;;2.50;;
53421;SDS011;39319;52.944;5.928;2022-12-07T16:55:47;8.73;;;2.17;;
53421;SDS011;39319;52.944;5.928;2022-12-07T16:58:14;9.05;;;2.00;;
53421;SDS011;39319;52.944;5.928;2022-12-07T17:00:42;10.90;;;2.45;;
53421;SDS011;39319;52.944;5.928;2022-12-07T17:03:09;8.17;;;1.70;;
53421;SDS011;39319;52.944;5.928;2022-12-07T17:05:39;7.05;;;1.58;;
53421;SDS011;39319;52.944;5.928;2022-12-07T17:08:09;6.43;;;1.50;;
53421;SDS011;39319;52.944;5.928;2022-12-07T17:10:37;7.40;;;1.50;;
53421;SDS011;39319;52.944;5.928;2022-12-07T17:13:04;8.00;;;1.30;;